Time;durP1;ratioP1;P1;durP2;ratioP2;P2;SDS_P1;SDS_P2;PMS_P1;PMS_P2;Temp;Humidity;BMP_temperature;BMP_pressure;BME280_temperature;BME280_humidity;BME280_pressure;Samples;Min_cycle;Max_cycle;Signal;HPM_P1;HPM_P2
2022/03/21 00:00:33;;;;;;;;;;;;;;;;;;5039315;28;19917;-57
2022/03/21 00:03:00;;;;;;;;;;;;;;;;;;5038807;28;19917;-58
2022/03/21 00:05:28;;;;;;;;;;;;;;;;;;5039065;28;19905;-56
2022/03/21 00:07:54;;;;;;;;;;;;;;;;;;5039327;28;19909;-57
2022/03/21 00:10:19;;;;;;;;;;;;;;;;;;5038935;28;20355;-58
2022/03/21 00:12:45;;;;;;;;;;;;;;;;;;5039039;28;19905;-58
2022/03/21 00:15:11;;;;;;;;;;;;;;;;;;5039050;28;19995;-58
2022/03/21 00:17:40;;;;;;;;;;;;;;;;;;5039027;28;20330;-58
2022/03/21 00:20:06;;;;;;;;;;;;;;;;;;5038791;28;19913;-55
2022/03/21 00:22:33;;;;;;;;;;;;;;;;;;5038905;28;19904;-57
2022/03/21 00:24:59;;;;;;;;;;;;;;;;;;5037600;28;20252;-58
2022/03/21 00:27:25;;;;;;;;;;;;;;;;;;5038776;28;19905;-57
2022/03/21 00:29:51;;;;;;;;;;;;;;;;;;5038791;28;19905;-57
2022/03/21 00:32:18;;;;;;;;;;;;;;;;;;5038841;28;20051;-57
2022/03/21 00:34:44;;;;;;;;;;;;;;;;;;5039070;28;19908;-57
2022/03/21 00:37:12;;;;;;;;;;;;;;;;;;5038767;28;20000;-58
2022/03/21 00:39:39;;;;;;;;;;;;;;;;;;5039030;28;19932;-58
2022/03/21 00:42:04;;;;;;;;;;;;;;;;;;5038716;28;19949;-58
2022/03/21 00:44:30;;;;;;;;;;;;;;;;;;5038980;28;19912;-58
2022/03/21 00:46:56;;;;;;;;;;;;;;;;;;5038671;28;19905;-56
2022/03/21 00:49:22;;;;;;;;;;;;;;;;;;5038737;28;19908;-58
2022/03/21 00:51:48;;;;;;;;;;;;;;;;;;5038734;28;19922;-57
2022/03/21 00:54:14;;;;;;;;;;;;;;;;;;5037335;28;20409;-58
2022/03/21 00:56:40;;;;;;;;;;;;;;;;;;5038661;28;20000;-58
2022/03/21 00:59:06;;;;;;;;;;;;;;;;;;5038526;28;19979;-58
2022/03/21 01:01:32;;;;;;;;;;;;;;;;;;5038385;28;19920;-57
2022/03/21 01:03:58;;;;;;;;;;;;;;;;;;5036039;28;19917;-57
2022/03/21 01:06:23;;;;;;;;;;;;;;;;;;5035446;28;19905;-58
2022/03/21 01:08:49;;;;;;;;;;;;;;;;;;5035496;28;20073;-57
2022/03/21 01:11:15;;;;;;;;;;;;;;;;;;5035320;28;20394;-58
2022/03/21 01:13:42;;;;;;;;;;;;;;;;;;5035323;28;19905;-57
2022/03/21 01:16:08;;;;;;;;;;;;;;;;;;5035347;28;20066;-57
2022/03/21 01:18:34;;;;;;;;;;;;;;;;;;5035181;28;20553;-58
2022/03/21 01:21:00;;;;;;;;;;;;;;;;;;5035038;28;19920;-58
2022/03/21 01:23:25;;;;;;;;;;;;;;;;;;5035068;28;20368;-58
2022/03/21 01:25:51;;;;;;;;;;;;;;;;;;5034950;28;20012;-58
2022/03/21 01:28:17;;;;;;;;;;;;;;;;;;5035217;28;19905;-58
2022/03/21 01:30:43;;;;;;;;;;;;;;;;;;5034970;28;19951;-57
2022/03/21 01:33:09;;;;;;;;;;;;;;;;;;5034878;28;19992;-58
2022/03/21 01:35:35;;;;;;;;;;;;;;;;;;5034818;28;19912;-58
2022/03/21 01:38:01;;;;;;;;;;;;;;;;;;5034779;28;19905;-58
2022/03/21 01:40:26;;;;;;;;;;;;;;;;;;5034629;28;19913;-57
2022/03/21 01:42:52;;;;;;;;;;;;;;;;;;5034689;28;19912;-57
2022/03/21 01:45:19;;;;;;;;;;;;;;;;;;5034697;28;19992;-58
2022/03/21 01:47:46;;;;;;;;;;;;;;;;;;5034909;28;19951;-47
2022/03/21 01:50:11;;;;;;;;;;;;;;;;;;5034587;28;19986;-49
2022/03/21 01:52:37;;;;;;;;;;;;;;;;;;5034565;28;19904;-49
2022/03/21 01:57:48;;;;;;;;;;;;;;;;;;5034448;28;19927;-48
2022/03/21 02:00:14;;;;;;;;;;;;;;;;;;5034297;28;20367;-48
2022/03/21 02:02:39;;;;;;;;;;;;;;;;;;5034272;28;19917;-47
2022/03/21 02:05:05;;;;;;;;;;;;;;;;;;5034285;28;19912;-48
2022/03/21 02:07:31;;;;;;;;;;;;;;;;;;5034279;28;19905;-48
2022/03/21 02:09:57;;;;;;;;;;;;;;;;;;5034172;28;19905;-48
2022/03/21 02:12:23;;;;;;;;;;;;;;;;;;5034143;28;19905;-47
2022/03/21 02:14:49;;;;;;;;;;;;;;;;;;5034236;28;19912;-47
2022/03/21 02:17:16;;;;;;;;;;;;;;;;;;5034171;28;20434;-49
2022/03/21 02:19:42;;;;;;;;;;;;;;;;;;5034076;28;19944;-48
2022/03/21 02:22:08;;;;;;;;;;;;;;;;;;5033978;28;19963;-48
2022/03/21 02:24:34;;;;;;;;;;;;;;;;;;5033997;28;19915;-48
2022/03/21 02:27:01;;;;;;;;;;;;;;;;;;5033819;28;19930;-48
2022/03/21 02:29:26;;;;;;;;;;;;;;;;;;5033838;28;20273;-47
2022/03/21 02:31:52;;;;;;;;;;;;;;;;;;5033970;28;19950;-49
2022/03/21 02:34:18;;;;;;;;;;;;;;;;;;5033740;28;19955;-48
2022/03/21 02:36:44;;;;;;;;;;;;;;;;;;5033601;28;19905;-48
2022/03/21 02:39:10;;;;;;;;;;;;;;;;;;5033585;28;19912;-48
2022/03/21 02:41:36;;;;;;;;;;;;;;;;;;5033613;28;19913;-49
2022/03/21 02:44:02;;;;;;;;;;;;;;;;;;5033581;28;19905;-48
2022/03/21 02:46:28;;;;;;;;;;;;;;;;;;5033515;28;19951;-48
2022/03/21 02:48:53;;;;;;;;;;;;;;;;;;5033454;28;19909;-48
2022/03/21 02:51:22;;;;;;;;;;;;;;;;;;5032148;28;20356;-48
2022/03/21 02:53:48;;;;;;;;;;;;;;;;;;5033349;28;19905;-49
2022/03/21 02:56:14;;;;;;;;;;;;;;;;;;5033334;28;19912;-48
2022/03/21 02:58:40;;;;;;;;;;;;;;;;;;5033324;28;19944;-47
2022/03/21 03:01:06;;;;;;;;;;;;;;;;;;5033266;28;20003;-48
2022/03/21 03:03:32;;;;;;;;;;;;;;;;;;5032976;28;19917;-48
2022/03/21 03:05:58;;;;;;;;;;;;;;;;;;5033384;28;20016;-49
2022/03/21 03:08:23;;;;;;;;;;;;;;;;;;5033114;28;19916;-48
2022/03/21 03:10:49;;;;;;;;;;;;;;;;;;5033044;28;19995;-48
2022/03/21 03:13:15;;;;;;;;;;;;;;;;;;5033052;28;19905;-48
2022/03/21 03:15:41;;;;;;;;;;;;;;;;;;5032969;28;19955;-48
2022/03/21 03:18:07;;;;;;;;;;;;;;;;;;5032950;28;19905;-48
2022/03/21 03:20:33;;;;;;;;;;;;;;;;;;5033222;28;19913;-48
2022/03/21 03:22:59;;;;;;;;;;;;;;;;;;5032866;28;19999;-48
2022/03/21 03:25:25;;;;;;;;;;;;;;;;;;5033115;28;20286;-49
2022/03/21 03:27:51;;;;;;;;;;;;;;;;;;5032261;28;19905;-48
2022/03/21 03:30:17;;;;;;;;;;;;;;;;;;5032793;28;20006;-48
2022/03/21 03:32:44;;;;;;;;;;;;;;;;;;5032735;28;20260;-48
2022/03/21 03:35:10;;;;;;;;;;;;;;;;;;5033035;28;19912;-50
2022/03/21 03:37:36;;;;;;;;;;;;;;;;;;5033059;28;19905;-48
2022/03/21 03:40:02;;;;;;;;;;;;;;;;;;5032713;28;19905;-48
2022/03/21 03:42:28;;;;;;;;;;;;;;;;;;5032563;28;20003;-48
2022/03/21 03:44:54;;;;;;;;;;;;;;;;;;5032589;28;19913;-48
2022/03/21 03:47:20;;;;;;;;;;;;;;;;;;5032640;28;20001;-48
2022/03/21 03:49:46;;;;;;;;;;;;;;;;;;5032778;28;19948;-49
2022/03/21 03:52:11;;;;;;;;;;;;;;;;;;5032539;28;19951;-48
2022/03/21 03:54:37;;;;;;;;;;;;;;;;;;5032569;28;19905;-50
2022/03/21 03:57:03;;;;;;;;;;;;;;;;;;5032509;28;19916;-49
2022/03/21 03:59:29;;;;;;;;;;;;;;;;;;5032462;28;19967;-48
2022/03/21 04:01:55;;;;;;;;;;;;;;;;;;5030900;28;19916;-48
2022/03/21 04:04:21;;;;;;;;;;;;;;;;;;5032305;28;20011;-48
2022/03/21 04:06:48;;;;;;;;;;;;;;;;;;5032700;28;19927;-48
2022/03/21 04:09:14;;;;;;;;;;;;;;;;;;5032675;28;19995;-49
2022/03/21 04:11:40;;;;;;;;;;;;;;;;;;5032436;28;19905;-48
2022/03/21 04:14:05;;;;;;;;;;;;;;;;;;5032669;28;19928;-48
2022/03/21 04:16:31;;;;;;;;;;;;;;;;;;5032357;28;19908;-48
2022/03/21 04:18:57;;;;;;;;;;;;;;;;;;5032343;28;19912;-48
2022/03/21 04:21:23;;;;;;;;;;;;;;;;;;5032265;28;19913;-48
2022/03/21 04:23:49;;;;;;;;;;;;;;;;;;5032237;28;20391;-48
2022/03/21 04:26:15;;;;;;;;;;;;;;;;;;5032265;28;19909;-48
2022/03/21 04:28:41;;;;;;;;;;;;;;;;;;5032223;28;19905;-48
2022/03/21 04:31:07;;;;;;;;;;;;;;;;;;5032101;28;19956;-49
2022/03/21 04:33:33;;;;;;;;;;;;;;;;;;5031012;28;19905;-58
2022/03/21 04:35:58;;;;;;;;;;;;;;;;;;5032423;28;19905;-57
2022/03/21 04:38:24;;;;;;;;;;;;;;;;;;5032211;28;20375;-56
2022/03/21 04:40:50;;;;;;;;;;;;;;;;;;5035495;28;19913;-57
2022/03/21 04:43:16;;;;;;;;;;;;;;;;;;5035830;28;19905;-57
2022/03/21 04:45:42;;;;;;;;;;;;;;;;;;5035795;28;19959;-57
2022/03/21 04:48:08;;;;;;;;;;;;;;;;;;5036005;28;19910;-57
2022/03/21 04:50:34;;;;;;;;;;;;;;;;;;5035802;28;19905;-58
2022/03/21 04:53:00;;;;;;;;;;;;;;;;;;5035958;28;19912;-57
2022/03/21 04:55:26;;;;;;;;;;;;;;;;;;5034296;28;20294;-56
2022/03/21 04:57:52;;;;;;;;;;;;;;;;;;5035603;28;19912;-57
2022/03/21 05:00:18;;;;;;;;;;;;;;;;;;5035449;28;19905;-58
2022/03/21 05:08:13;;;;;;;;;;;;;;;;;;5015814;28;20417;-48
2022/03/21 05:10:39;;;;;;;;;;;;;;;;;;5015664;28;19913;-48
2022/03/21 05:13:06;;;;;;;;;;;;;;;;;;5015909;28;20043;-48
2022/03/21 05:15:32;;;;;;;;;;;;;;;;;;5015847;28;19905;-48
2022/03/21 05:17:58;;;;;;;;;;;;;;;;;;5015594;28;20287;-48
2022/03/21 05:20:25;;;;;;;;;;;;;;;;;;5015390;28;20000;-56
2022/03/21 05:31:05;;;;;;;;;;;;;;;;;;5015314;28;19967;-58
2022/03/21 05:36:15;;;;;;;;;;;;;;;;;;5015359;28;19952;-57
2022/03/21 05:38:41;;;;;;;;;;;;;;;;;;5015402;28;19906;-57
2022/03/21 05:41:07;;;;;;;;;;;;;;;;;;5015040;28;19913;-57
2022/03/21 05:43:33;;;;;;;;;;;;;;;;;;5015035;28;19906;-57
2022/03/21 05:46:03;;;;;;;;;;;;;;;;;;5014987;28;19910;-58
2022/03/21 05:51:13;;;;;;;;;;;;;;;;;;5014532;28;19935;-57
2022/03/21 05:53:39;;;;;;;;;;;;;;;;;;5014860;28;19909;-58
2022/03/21 05:56:05;;;;;;;;;;;;;;;;;;5014935;28;19905;-57
2022/03/21 05:58:31;;;;;;;;;;;;;;;;;;5014790;28;19909;-57
2022/03/21 06:00:57;;;;;;;;;;;;;;;;;;5014563;28;19919;-58
2022/03/21 06:03:24;;;;;;;;;;;;;;;;;;5014449;28;20004;-58
2022/03/21 06:05:50;;;;;;;;;;;;;;;;;;5014516;28;19911;-57
2022/03/21 06:08:16;;;;;;;;;;;;;;;;;;5014591;28;19992;-58
2022/03/21 06:10:42;;;;;;;;;;;;;;;;;;5014775;28;19905;-58
2022/03/21 06:13:08;;;;;;;;;;;;;;;;;;5014786;28;19905;-57
2022/03/21 06:15:35;;;;;;;;;;;;;;;;;;5014439;28;19906;-58
2022/03/21 06:18:02;;;;;;;;;;;;;;;;;;5014395;28;19905;-58
2022/03/21 06:20:28;;;;;;;;;;;;;;;;;;5014339;28;19906;-58
2022/03/21 06:22:53;;;;;;;;;;;;;;;;;;5014351;28;20348;-58
2022/03/21 06:25:19;;;;;;;;;;;;;;;;;;5014607;28;19944;-58
2022/03/21 06:27:46;;;;;;;;;;;;;;;;;;5014223;28;19905;-58
2022/03/21 06:30:11;;;;;;;;;;;;;;;;;;5014188;28;20229;-58
2022/03/21 06:32:37;;;;;;;;;;;;;;;;;;4996635;28;20156;-58
2022/03/21 06:35:03;;;;;;;;;;;;;;;;;;5014035;28;19913;-58
2022/03/21 06:37:29;;;;;;;;;;;;;;;;;;5014105;28;19909;-58
2022/03/21 06:39:55;;;;;;;;;;;;;;;;;;5014248;28;19909;-58
2022/03/21 06:42:21;;;;;;;;;;;;;;;;;;5013922;28;19913;-58
2022/03/21 06:44:47;;;;;;;;;;;;;;;;;;5013885;28;19905;-58
2022/03/21 06:47:13;;;;;;;;;;;;;;;;;;5013786;28;20007;-58
2022/03/21 06:49:39;;;;;;;;;;;;;;;;;;5013843;28;19956;-56
2022/03/21 06:52:08;;;;;;;;;;;;;;;;;;5014197;28;19992;-57
2022/03/21 06:54:33;;;;;;;;;;;;;;;;;;5013924;28;19905;-58
2022/03/21 06:56:59;;;;;;;;;;;;;;;;;;5013902;28;19951;-58
2022/03/21 06:59:25;;;;;;;;;;;;;;;;;;5013851;28;20244;-58
2022/03/21 07:01:51;;;;;;;;;;;;;;;;;;5012609;28;20413;-58
2022/03/21 07:04:17;;;;;;;;;;;;;;;;;;5013734;28;19956;-58
2022/03/21 07:06:43;;;;;;;;;;;;;;;;;;5013604;28;19912;-58
2022/03/21 07:09:09;;;;;;;;;;;;;;;;;;5013623;28;19960;-58
2022/03/21 07:11:37;;;;;;;;;;;;;;;;;;5013598;28;19922;-47
2022/03/21 07:14:03;;;;;;;;;;;;;;;;;;5013415;28;19905;-48
2022/03/21 07:16:29;;;;;;;;;;;;;;;;;;5013522;28;20331;-48
2022/03/21 07:18:54;;;;;;;;;;;;;;;;;;5013717;28;19924;-48
2022/03/21 07:21:20;;;;;;;;;;;;;;;;;;5013304;28;19913;-48
2022/03/21 07:23:46;;;;;;;;;;;;;;;;;;5013299;28;19912;-48
2022/03/21 07:26:12;;;;;;;;;;;;;;;;;;5013306;28;19905;-48
2022/03/21 07:28:38;;;;;;;;;;;;;;;;;;5013419;28;19913;-48
2022/03/21 07:31:04;;;;;;;;;;;;;;;;;;5013204;28;19948;-47
2022/03/21 07:33:30;;;;;;;;;;;;;;;;;;5013221;28;19905;-49
2022/03/21 07:35:55;;;;;;;;;;;;;;;;;;5013207;28;19999;-48
2022/03/21 07:38:22;;;;;;;;;;;;;;;;;;5013058;28;19912;-49
2022/03/21 07:40:48;;;;;;;;;;;;;;;;;;5013276;28;19917;-48
2022/03/21 07:43:14;;;;;;;;;;;;;;;;;;5013084;28;19909;-49
2022/03/21 07:48:27;;;;;;;;;;;;;;;;;;5013095;28;19968;-49
2022/03/21 07:50:53;;;;;;;;;;;;;;;;;;5012999;28;20297;-49
2022/03/21 07:53:19;;;;;;;;;;;;;;;;;;5012993;28;19963;-48
2022/03/21 07:55:45;;;;;;;;;;;;;;;;;;5013029;28;19905;-49
2022/03/21 07:58:11;;;;;;;;;;;;;;;;;;5012871;28;19906;-48
2022/03/21 08:00:37;;;;;;;;;;;;;;;;;;5012819;28;19916;-49
2022/03/21 08:03:03;;;;;;;;;;;;;;;;;;5012580;28;19917;-49
2022/03/21 08:05:29;;;;;;;;;;;;;;;;;;5013011;28;19910;-47
2022/03/21 08:07:55;;;;;;;;;;;;;;;;;;5012873;28;19909;-49
2022/03/21 08:10:22;;;;;;;;;;;;;;;;;;5012806;28;19905;-48
2022/03/21 08:12:48;;;;;;;;;;;;;;;;;;5013072;28;19912;-49
2022/03/21 08:15:14;;;;;;;;;;;;;;;;;;4999122;28;20279;-50
2022/03/21 08:17:39;;;;;;;;;;;;;;;;;;5016908;28;19912;-49
2022/03/21 08:20:05;;;;;;;;;;;;;;;;;;5016596;28;19912;-49
2022/03/21 08:22:31;;;;;;;;;;;;;;;;;;5016599;28;19913;-48
2022/03/21 08:24:57;;;;;;;;;;;;;;;;;;5016638;28;19905;-49
2022/03/21 08:27:23;;;;;;;;;;;;;;;;;;5016414;28;19949;-50
2022/03/21 08:29:49;;;;;;;;;;;;;;;;;;5016583;28;19909;-50
2022/03/21 08:32:15;;;;;;;;;;;;;;;;;;5016417;28;19912;-50
2022/03/21 08:34:41;;;;;;;;;;;;;;;;;;5016523;28;20422;-49
2022/03/21 08:37:07;;;;;;;;;;;;;;;;;;5016388;28;19909;-49
2022/03/21 08:39:33;;;;;;;;;;;;;;;;;;5016569;28;19905;-49
2022/03/21 08:41:59;;;;;;;;;;;;;;;;;;5016183;28;20012;-49
2022/03/21 08:44:24;;;;;;;;;;;;;;;;;;5016479;28;19909;-49
2022/03/21 08:46:50;;;;;;;;;;;;;;;;;;5016220;28;19928;-48
2022/03/21 08:49:27;;;;;;;;;;;;;;;;;;5016049;28;19905;-49
2022/03/21 08:51:52;;;;;;;;;;;;;;;;;;5015963;28;20341;-49
2022/03/21 08:54:18;;;;;;;;;;;;;;;;;;5015963;28;19994;-49
2022/03/21 08:56:44;;;;;;;;;;;;;;;;;;5015978;28;19905;-49
2022/03/21 08:59:11;;;;;;;;;;;;;;;;;;5015995;28;19905;-49
2022/03/21 09:01:36;;;;;;;;;;;;;;;;;;5015600;28;19995;-48
2022/03/21 09:04:02;;;;;;;;;;;;;;;;;;5015891;28;19941;-49
2022/03/21 09:06:28;;;;;;;;;;;;;;;;;;5015743;28;20378;-49
2022/03/21 09:08:55;;;;;;;;;;;;;;;;;;5015781;28;19906;-49
2022/03/21 09:11:21;;;;;;;;;;;;;;;;;;5015731;28;20367;-49
2022/03/21 09:13:47;;;;;;;;;;;;;;;;;;5015702;28;19951;-49
2022/03/21 09:16:13;;;;;;;;;;;;;;;;;;5015520;28;20352;-49
2022/03/21 09:18:39;;;;;;;;;;;;;;;;;;5015624;28;19916;-48
2022/03/21 09:21:05;;;;;;;;;;;;;;;;;;5015726;28;19914;-49
2022/03/21 09:23:31;;;;;;;;;;;;;;;;;;5015470;28;19906;-51
2022/03/21 09:25:57;;;;;;;;;;;;;;;;;;5014469;28;19951;-49
2022/03/21 09:28:23;;;;;;;;;;;;;;;;;;5015403;28;19941;-50
2022/03/21 09:30:49;;;;;;;;;;;;;;;;;;5015674;28;19909;-50
2022/03/21 09:33:15;;;;;;;;;;;;;;;;;;5015205;28;19928;-50
2022/03/21 09:35:43;;;;;;;;;;;;;;;;;;5015199;28;20271;-50
2022/03/21 09:38:09;;;;;;;;;;;;;;;;;;5015512;28;19909;-50
2022/03/21 09:40:35;;;;;;;;;;;;;;;;;;5015084;28;19959;-49
2022/03/21 09:43:01;;;;;;;;;;;;;;;;;;5015137;28;19909;-48
2022/03/21 09:45:26;;;;;;;;;;;;;;;;;;5015072;28;19972;-49
2022/03/21 09:48:12;;;;;;;;;;;;;;;;;;5014937;28;20424;-49
2022/03/21 09:50:39;;;;;;;;;;;;;;;;;;5014938;28;19913;-49
2022/03/21 09:53:05;;;;;;;;;;;;;;;;;;5014924;28;19909;-48
2022/03/21 09:55:31;;;;;;;;;;;;;;;;;;5015013;28;19912;-48
2022/03/21 09:57:57;;;;;;;;;;;;;;;;;;5014881;28;20356;-49
2022/03/21 10:00:23;;;;;;;;;;;;;;;;;;5014721;28;19905;-49
2022/03/21 10:02:49;;;;;;;;;;;;;;;;;;5014615;28;19929;-48
2022/03/21 10:05:15;;;;;;;;;;;;;;;;;;5015011;28;19905;-48
2022/03/21 10:07:40;;;;;;;;;;;;;;;;;;5014700;28;20368;-49
2022/03/21 10:10:06;;;;;;;;;;;;;;;;;;5014837;28;20005;-49
2022/03/21 10:12:32;;;;;;;;;;;;;;;;;;5014765;28;19913;-48
2022/03/21 10:14:59;;;;;;;;;;;;;;;;;;5014634;28;19916;-49
2022/03/21 10:17:25;;;;;;;;;;;;;;;;;;5014552;28;19905;-49
2022/03/21 10:19:52;;;;;;;;;;;;;;;;;;5014174;28;20376;-49
2022/03/21 10:22:19;;;;;;;;;;;;;;;;;;5014076;28;20011;-49
2022/03/21 10:24:45;;;;;;;;;;;;;;;;;;5013993;28;19906;-48
2022/03/21 10:27:11;;;;;;;;;;;;;;;;;;5014185;28;19905;-48
2022/03/21 10:29:37;;;;;;;;;;;;;;;;;;5014268;28;19939;-50
2022/03/21 10:32:03;;;;;;;;;;;;;;;;;;5014262;28;19909;-49
2022/03/21 10:34:34;;;;;;;;;;;;;;;;;;5014190;28;19944;-50
2022/03/21 10:37:00;;;;;;;;;;;;;;;;;;5014100;28;19905;-49
2022/03/21 10:39:26;;;;;;;;;;;;;;;;;;5014090;28;19999;-49
2022/03/21 10:41:51;;;;;;;;;;;;;;;;;;5014027;28;20370;-50
2022/03/21 10:44:17;;;;;;;;;;;;;;;;;;5014063;28;19911;-50
2022/03/21 10:46:43;;;;;;;;;;;;;;;;;;5013949;28;19921;-49
2022/03/21 10:49:09;;;;;;;;;;;;;;;;;;5013890;28;19959;-50
2022/03/21 10:51:35;;;;;;;;;;;;;;;;;;5013960;28;19992;-51
2022/03/21 10:54:01;;;;;;;;;;;;;;;;;;5013872;28;19909;-52
2022/03/21 10:56:27;;;;;;;;;;;;;;;;;;5014073;28;19906;-51
2022/03/21 10:58:52;;;;;;;;;;;;;;;;;;5014103;28;19905;-50
2022/03/21 11:01:18;;;;;;;;;;;;;;;;;;5013595;28;20087;-49
2022/03/21 11:03:44;;;;;;;;;;;;;;;;;;5013577;28;19923;-49
2022/03/21 11:06:10;;;;;;;;;;;;;;;;;;5013644;28;19905;-49
2022/03/21 11:08:36;;;;;;;;;;;;;;;;;;5013576;28;19905;-49
2022/03/21 11:11:02;;;;;;;;;;;;;;;;;;5013891;28;19988;-49
2022/03/21 11:13:28;;;;;;;;;;;;;;;;;;5013525;28;20260;-48
2022/03/21 11:15:54;;;;;;;;;;;;;;;;;;5013493;28;19909;-48
2022/03/21 11:18:20;;;;;;;;;;;;;;;;;;5013493;28;19912;-49
2022/03/21 11:20:46;;;;;;;;;;;;;;;;;;5013291;28;19909;-48
2022/03/21 11:23:11;;;;;;;;;;;;;;;;;;5013415;28;20000;-49
2022/03/21 11:25:37;;;;;;;;;;;;;;;;;;5013373;28;19940;-50
2022/03/21 11:28:03;;;;;;;;;;;;;;;;;;5013354;28;19909;-50
2022/03/21 11:30:29;;;;;;;;;;;;;;;;;;5013341;28;19956;-48
2022/03/21 11:32:55;;;;;;;;;;;;;;;;;;5013252;28;19909;-49
2022/03/21 11:35:22;;;;;;;;;;;;;;;;;;5013461;28;19906;-49
2022/03/21 11:37:47;;;;;;;;;;;;;;;;;;5013125;28;20359;-50
2022/03/21 11:40:13;;;;;;;;;;;;;;;;;;5013108;28;19912;-49
2022/03/21 11:42:39;;;;;;;;;;;;;;;;;;5013053;28;19917;-49
2022/03/21 11:45:05;;;;;;;;;;;;;;;;;;5013044;28;19996;-49
2022/03/21 11:47:34;;;;;;;;;;;;;;;;;;5013152;28;19905;-48
2022/03/21 11:50:00;;;;;;;;;;;;;;;;;;5013257;28;19936;-47
2022/03/21 11:52:26;;;;;;;;;;;;;;;;;;5012963;28;19971;-47
2022/03/21 11:54:54;;;;;;;;;;;;;;;;;;5012957;28;20299;-47
2022/03/21 11:57:19;;;;;;;;;;;;;;;;;;5013088;28;19931;-48
2022/03/21 11:59:47;;;;;;;;;;;;;;;;;;5012936;28;20427;-47
2022/03/21 12:02:13;;;;;;;;;;;;;;;;;;5012805;28;19917;-47
2022/03/21 12:04:39;;;;;;;;;;;;;;;;;;5012853;28;19940;-53
2022/03/21 12:07:05;;;;;;;;;;;;;;;;;;5012934;28;20296;-55
2022/03/21 12:09:31;;;;;;;;;;;;;;;;;;5012892;28;19937;-55
2022/03/21 12:11:58;;;;;;;;;;;;;;;;;;5012882;28;19959;-55
2022/03/21 12:14:46;;;;;;;;;;;;;;;;;;5013000;28;19901;-54
2022/03/21 12:17:11;;;;;;;;;;;;;;;;;;5012370;28;19981;-54
2022/03/21 12:19:36;;;;;;;;;;;;;;;;;;5012696;28;19905;-54
2022/03/21 12:22:02;;;;;;;;;;;;;;;;;;5012618;28;19914;-54
2022/03/21 12:24:28;;;;;;;;;;;;;;;;;;5012623;28;19905;-54
2022/03/21 12:26:58;;;;;;;;;;;;;;;;;;5012753;28;19912;-55
2022/03/21 12:29:33;;;;;;;;;;;;;;;;;;5013122;28;19905;-56
2022/03/21 12:31:58;;;;;;;;;;;;;;;;;;5012787;28;19905;-53
2022/03/21 12:34:24;;;;;;;;;;;;;;;;;;5012773;28;20009;-55
2022/03/21 12:36:51;;;;;;;;;;;;;;;;;;5012837;28;19957;-55
2022/03/21 12:39:18;;;;;;;;;;;;;;;;;;5012822;28;19905;-55
2022/03/21 12:41:44;;;;;;;;;;;;;;;;;;5012701;28;20335;-55
2022/03/21 12:44:09;;;;;;;;;;;;;;;;;;5012672;28;19921;-55
2022/03/21 12:46:35;;;;;;;;;;;;;;;;;;5012608;28;20032;-56
2022/03/21 12:49:01;;;;;;;;;;;;;;;;;;5012714;28;19905;-56
2022/03/21 12:51:27;;;;;;;;;;;;;;;;;;5012795;28;19912;-55
2022/03/21 12:53:56;;;;;;;;;;;;;;;;;;5012645;28;20336;-56
2022/03/21 12:56:22;;;;;;;;;;;;;;;;;;5012389;28;20340;-55
2022/03/21 12:58:49;;;;;;;;;;;;;;;;;;5012515;28;19999;-55
2022/03/21 13:01:15;;;;;;;;;;;;;;;;;;5015048;28;19963;-50
2022/03/21 13:03:41;;;;;;;;;;;;;;;;;;5015790;28;19924;-48
2022/03/21 13:11:36;;;;;;;;;;;;;;;;;;5016283;28;19955;-49
2022/03/21 13:14:01;;;;;;;;;;;;;;;;;;5015701;28;19932;-50
2022/03/21 13:16:28;;;;;;;;;;;;;;;;;;5015752;28;19992;-51
2022/03/21 13:18:54;;;;;;;;;;;;;;;;;;5015656;28;19905;-48
2022/03/21 13:21:19;;;;;;;;;;;;;;;;;;5015474;28;20410;-47
2022/03/21 13:23:45;;;;;;;;;;;;;;;;;;5015143;28;19947;-48
2022/03/21 13:26:11;;;;;;;;;;;;;;;;;;5015474;28;19906;-47
2022/03/21 13:28:38;;;;;;;;;;;;;;;;;;5015431;28;19905;-48
2022/03/21 13:31:04;;;;;;;;;;;;;;;;;;5015398;28;20418;-47
2022/03/21 13:33:30;;;;;;;;;;;;;;;;;;5015613;28;19906;-48
2022/03/21 13:35:58;;;;;;;;;;;;;;;;;;5015605;28;19906;-50
2022/03/21 13:38:24;;;;;;;;;;;;;;;;;;5015240;28;19995;-47
2022/03/21 13:40:50;;;;;;;;;;;;;;;;;;5015130;28;20347;-48
2022/03/21 13:43:16;;;;;;;;;;;;;;;;;;5015147;28;19912;-51
2022/03/21 13:45:41;;;;;;;;;;;;;;;;;;5015114;28;19905;-51
2022/03/21 13:48:07;;;;;;;;;;;;;;;;;;5015029;28;20021;-50
2022/03/21 13:50:38;;;;;;;;;;;;;;;;;;5014977;28;20372;-52
2022/03/21 13:53:06;;;;;;;;;;;;;;;;;;5021622;28;19996;-50
2022/03/21 13:55:32;;;;;;;;;;;;;;;;;;5014886;28;20011;-47
2022/03/21 13:57:58;;;;;;;;;;;;;;;;;;5014792;28;19936;-48
2022/03/21 14:00:25;;;;;;;;;;;;;;;;;;5014713;28;20426;-48
2022/03/21 14:02:51;;;;;;;;;;;;;;;;;;5014442;28;19917;-48
2022/03/21 14:05:20;;;;;;;;;;;;;;;;;;5014701;28;19909;-49
2022/03/21 14:07:47;;;;;;;;;;;;;;;;;;5014577;28;19937;-47
2022/03/21 14:10:13;;;;;;;;;;;;;;;;;;5014619;28;19901;-48
2022/03/21 14:12:38;;;;;;;;;;;;;;;;;;5014317;28;19906;-48
2022/03/21 14:15:04;;;;;;;;;;;;;;;;;;5014433;28;19928;-48
2022/03/21 14:17:30;;;;;;;;;;;;;;;;;;5014581;28;19906;-48
2022/03/21 14:19:56;;;;;;;;;;;;;;;;;;5014442;28;20419;-50
2022/03/21 14:22:22;;;;;;;;;;;;;;;;;;5014296;28;19920;-47
2022/03/21 14:24:48;;;;;;;;;;;;;;;;;;5014398;28;19956;-49
2022/03/21 14:27:14;;;;;;;;;;;;;;;;;;5014404;28;19905;-49
2022/03/21 14:29:39;;;;;;;;;;;;;;;;;;5014333;28;19913;-48
2022/03/21 14:32:07;;;;;;;;;;;;;;;;;;5014452;28;19905;-47
2022/03/21 14:34:33;;;;;;;;;;;;;;;;;;5014415;28;19905;-47
2022/03/21 14:37:00;;;;;;;;;;;;;;;;;;5014131;28;20264;-47
2022/03/21 14:39:25;;;;;;;;;;;;;;;;;;5014102;28;19905;-47
2022/03/21 14:41:51;;;;;;;;;;;;;;;;;;5013927;28;19913;-47
2022/03/21 14:44:18;;;;;;;;;;;;;;;;;;5014123;28;20359;-47
2022/03/21 14:46:44;;;;;;;;;;;;;;;;;;5014043;28;19913;-48
2022/03/21 14:49:11;;;;;;;;;;;;;;;;;;5013976;28;19905;-47
2022/03/21 14:51:38;;;;;;;;;;;;;;;;;;5013971;28;20356;-48
2022/03/21 14:54:04;;;;;;;;;;;;;;;;;;5013876;28;19906;-47
2022/03/21 14:56:32;;;;;;;;;;;;;;;;;;5014017;28;19906;-47
2022/03/21 14:58:58;;;;;;;;;;;;;;;;;;5013624;28;19905;-47
2022/03/21 15:01:24;;;;;;;;;;;;;;;;;;5013660;28;19967;-46
2022/03/21 15:03:50;;;;;;;;;;;;;;;;;;5013555;28;19924;-47
2022/03/21 15:06:16;;;;;;;;;;;;;;;;;;5013704;28;19901;-48
2022/03/21 15:08:42;;;;;;;;;;;;;;;;;;5013661;28;19916;-47
2022/03/21 15:11:08;;;;;;;;;;;;;;;;;;5013604;28;19909;-49
2022/03/21 15:13:33;;;;;;;;;;;;;;;;;;5013462;28;19913;-47
2022/03/21 15:15:59;;;;;;;;;;;;;;;;;;5013374;28;19952;-48
2022/03/21 15:18:25;;;;;;;;;;;;;;;;;;5013438;28;20430;-48
2022/03/21 15:20:51;;;;;;;;;;;;;;;;;;5013334;28;19914;-48
2022/03/21 15:23:17;;;;;;;;;;;;;;;;;;5012843;28;20364;-48
2022/03/21 15:25:43;;;;;;;;;;;;;;;;;;5013271;28;19905;-48
2022/03/21 15:28:09;;;;;;;;;;;;;;;;;;5013484;28;20080;-47
2022/03/21 15:30:35;;;;;;;;;;;;;;;;;;5013811;28;20020;-48
2022/03/21 15:33:01;;;;;;;;;;;;;;;;;;5013422;28;20004;-48
2022/03/21 15:35:27;;;;;;;;;;;;;;;;;;5013050;28;20280;-48
2022/03/21 15:43:22;;;;;;;;;;;;;;;;;;5012951;28;19963;-48
2022/03/21 15:45:48;;;;;;;;;;;;;;;;;;5012883;28;20434;-48
2022/03/21 15:48:14;;;;;;;;;;;;;;;;;;5012921;28;19909;-47
2022/03/21 15:50:40;;;;;;;;;;;;;;;;;;5012885;28;20385;-48
2022/03/21 15:53:06;;;;;;;;;;;;;;;;;;5012857;28;20052;-47
2022/03/21 15:55:32;;;;;;;;;;;;;;;;;;5012788;28;19905;-47
2022/03/21 15:57:58;;;;;;;;;;;;;;;;;;5013070;28;19913;-47
2022/03/21 16:00:26;;;;;;;;;;;;;;;;;;5013102;28;19988;-48
2022/03/21 16:02:53;;;;;;;;;;;;;;;;;;5012608;28;20295;-47
2022/03/21 16:05:19;;;;;;;;;;;;;;;;;;5012836;28;19905;-47
2022/03/21 16:07:45;;;;;;;;;;;;;;;;;;5012795;28;19905;-47
2022/03/21 16:10:14;;;;;;;;;;;;;;;;;;5012777;28;19902;-47
2022/03/21 16:12:40;;;;;;;;;;;;;;;;;;5012752;28;20000;-47
2022/03/21 16:15:06;;;;;;;;;;;;;;;;;;5012714;28;19902;-47
2022/03/21 16:17:34;;;;;;;;;;;;;;;;;;5012746;28;20004;-47
2022/03/21 16:20:00;;;;;;;;;;;;;;;;;;5012743;28;19980;-48
2022/03/21 16:22:26;;;;;;;;;;;;;;;;;;5012702;28;19921;-47
2022/03/21 16:24:51;;;;;;;;;;;;;;;;;;5012714;28;19906;-46
2022/03/21 16:27:17;;;;;;;;;;;;;;;;;;5012624;28;19906;-46
2022/03/21 16:29:43;;;;;;;;;;;;;;;;;;5012599;28;19928;-47
2022/03/21 16:32:09;;;;;;;;;;;;;;;;;;5012539;28;19909;-47
2022/03/21 16:34:35;;;;;;;;;;;;;;;;;;5014358;28;19905;-47
2022/03/21 16:37:01;;;;;;;;;;;;;;;;;;5016265;28;20004;-48
2022/03/21 16:39:30;;;;;;;;;;;;;;;;;;5016402;28;19928;-47
2022/03/21 16:41:56;;;;;;;;;;;;;;;;;;5016052;28;20355;-47
2022/03/21 16:44:22;;;;;;;;;;;;;;;;;;5016036;28;19932;-46
2022/03/21 16:46:48;;;;;;;;;;;;;;;;;;5016148;28;20431;-47
2022/03/21 16:49:14;;;;;;;;;;;;;;;;;;5016071;28;19909;-48
2022/03/21 16:51:40;;;;;;;;;;;;;;;;;;5016010;28;19905;-48
2022/03/21 16:54:06;;;;;;;;;;;;;;;;;;5016062;28;20007;-46
2022/03/21 16:56:31;;;;;;;;;;;;;;;;;;5015865;28;19913;-48
2022/03/21 16:58:58;;;;;;;;;;;;;;;;;;5015992;28;20004;-47
2022/03/21 17:01:23;;;;;;;;;;;;;;;;;;5015826;28;20330;-47
2022/03/21 17:03:50;;;;;;;;;;;;;;;;;;5015575;28;19953;-47
2022/03/21 17:06:16;;;;;;;;;;;;;;;;;;5015643;28;19905;-47
2022/03/21 17:08:42;;;;;;;;;;;;;;;;;;5015525;28;19928;-47
2022/03/21 17:11:08;;;;;;;;;;;;;;;;;;5015417;28;19913;-46
2022/03/21 17:13:35;;;;;;;;;;;;;;;;;;4997873;28;19906;-47